• Join FlightAware (Why Join?)
  • Login
  • US Flag 
05:43PM EDT


 

Airport Tracker/Info


-or-


 

Live Flight TrackerFlight Track Log ✈ C-GONN ✈ 12-Apr-2013 ✈ CYVR - CYYJ

Flight Track Log - Related Links

Times and Time Zones

All times are in EDT time to prevent confusion due to time zone crossing. See the C-GONN flight status page for this flight to view local times or setup timezone preferences in your user account.

Time Position Orientation Groundspeed Altitude Reporting Facility
EDT Latitude Longitude Course Direction KTS MPH feet Rate Location/Type
10:03PM 49.1667 -123.1667 201° Southwest 110 127 700  Level Vancouver Center
10:04PM 49.1500 -123.1333 127° Southeast 120 138 2,000 1,140 Climbing Vancouver Center
10:05PM 49.1167 -123.1333 180° South 140 161 3,000 900 Climbing Vancouver Center
10:06PM 49.0667 -123.1333 180° South 170 196 3,900 480 Climbing Vancouver Center
10:07PM 49.0167 -123.1833 213° Southwest 200 230 4,000  Climbing Vancouver Center
10:08PM 48.9708 -123.2048 201° Southwest  Level FlightAware Approximate
10:08PM 48.9667 -123.2167 204° Southwest 200 230 4,000  Level Vancouver Center
10:09PM 48.9167 -123.2333 192° South 200 230 4,000  Level Vancouver Center
10:10PM 48.9000 -123.3167 253° West 200 230 4,000  Level Vancouver Center
10:11PM 48.8667 -123.4000 239° Southwest 200 230 4,000  Level Vancouver Center
10:12PM 48.8500 -123.4667 249° West 190 219 4,000  Level Vancouver Center
10:13PM 48.8333 -123.5500 253° West 190 219 4,000 60 Level Vancouver Center
10:14PM 48.8167 -123.6167 249° West 180 207 4,200 60 Climbing Vancouver Center
10:15PM 48.7833 -123.6667 225° Southwest 180 207 4,200  Level Vancouver Center
10:16PM 48.7667 -123.7500 253° West 150 173 4,200  Level Vancouver Center
10:17PM 48.7500 -123.7667 213° Southwest 130 150 4,200  Level Vancouver Center
10:18PM 48.7000 -123.7667 180° South 140 161 4,200 -180 Level Vancouver Center
10:19PM 48.6833 -123.7000 111° Southeast 180 207 3,900 -660 Descending Vancouver Center
10:20PM 48.6667 -123.6500 117° Southeast 200 230 2,900 -1,080 Descending Vancouver Center
10:21PM 48.6500 -123.5500 104° East 170 196 1,800 -960 Descending Vancouver Center
10:22PM 48.6500 -123.5000 90° East 130 150 1,000 -720 Descending Vancouver Center
10:23PM 48.6333 -123.4500 117° Southeast 110 127 400 -480 Descending Vancouver Center
10:24PM 48.6333 -123.4167 90° East 50 58 100 -300 Descending Vancouver Center